Etusivu
METAR-TAF:

METAR-TAF

Lentoasemat :

Stampede Pass, Washington, Yhdysvallat

Leveyspiiri: 47-16-36N, Pituuspiiri: 121-20-14W, korkeus merenpinnasta: 1207 m

Tämänhetkinen sää

Tämä raportti tehtiin 14 minuuttia sitten, kello 02.20 UTC
Tuuli 4 kn eri suunnista
Lämpötila 3°C
Kosteus 93%
Ilmanpaine 1005 hPa
Näkyvyys: 1.2 km
Hajanaisia pilviä 300 ft:n korkeudessa
Pilvistä 3100 ft:n korkeudessa
heikkoa sadetta, utua

METAR: KSMP 190220Z AUTO VRB04KT 3/4SM -RA BR SCT003 OVC031 03/02 A2968 RMK AO2 P0002 T00330022

Aika: 18:34 (02:34 UTC)


TAF: puuttuu

Säähavainnot ja -ennusteet yli 4000 lentoasemalta (METAR- ja TAF-raportit).

Käytössä olevat sääasemat on merkitty karttaan keltaisilla ja punaisilla pisteillä.

Aseta hiiri pisteen päälle nähdäksesi sääaseman nimen.

Klikkaa sitten nähdäksesi säähavainnot ja -ennusteet.

Kartan vaihtaminen: klikkaa mustalla rastilla varustettuja vihreitä pisteitä, niin voit zoomata sisään; viivalla varustettua vihreää pistettä, niin voit zoomata ulos tai vihreitä nuolia, niin pääset viereisille kartoille.


METAR-TAF: